Sandia Park, NM (87047)

04:13 PM MDT del 30 Agosto 2014 (GMT -0600)
Mike in Sandia Knolls | Change Station
CLOSE
Current Station
Stazione meteo personale
Location: Sandia Park, NM
Altitudine: 6693 ft
Stazioni meteo nelle vicinanze

Alt. 6693 ft 35.17 °N, 106.31 °W | Updated 1 minute ago

Parzialmente nuvoloso
Parzialmente nuvoloso
82.5 °F
Sembra 80 °F
N
3.0
Vento Variabile Vento da ONO
Gusts 9.0 mph

Oggi
Massima -- | Minima -- °F
--% Possibilità di precip.
Ieri
Massima -- | Minima -- °F
Precip. -- in
6:36 AM 7:34 PM
Luna crescente, 25% visible
Pressione 29.80 in
Visibilità 10.0 miglia
Nuvole Nubi sparse 9000 ft
Molto nuvoloso 25000 ft
Indice di calore 80 °F
Punto di rugiada 42 °F
Umidità 24%
Piovosità 0.00 in
Spessore del manto nevoso Non disponibile.
Raggi UV 4 fuori da 12
Polline 8.70 fuori da 12
Qualità dell'aria Non disponibile.
Flu Activity Non disponibile.
METAR KABQ 302152Z 20005KT 10SM SCT090 BKN250 32/04 A3007 RMK AO2 SLP090 T03170039

More Conditions Fewer Conditions

Pressione 29.80 in
Visibilità 10.0 miglia
Nuvole Nubi sparse 9000 ft
Molto nuvoloso 25000 ft
Indice di calore 80 °F
Punto di rugiada 42 °F
Umidità 24%
Piovosità 0.00 in
Spessore del manto nevoso Non disponibile.
Raggi UV 4 fuori da 12
Polline 8.70 fuori da 12
Qualità dell'aria Non disponibile.
Flu Activity Non disponibile.
METAR KABQ 302152Z 20005KT 10SM SCT090 BKN250 32/04 A3007 RMK AO2 SLP090 T03170039

More Conditions Fewer Conditions

10-Day Weather Forecast

Almanac

Astronomia

Aug. 30, 2014 Alba Tramonto
Ora attuale 06:36 MDT 19:34 MDT
Crepuscolo civile 06:10 MDT 20:00 MDT
Crepuscolo nautico 05:39 MDT 20:31 MDT
Crepuscolo astronomico 05:07 MDT 21:03 MDT
Luna 11:14 MDT 22:23 MDT
Estensione della luce visibile 13h 50m
Lunghezza del giorno
12h 58m
Tomorrow will be 2m 7s shorter.
Luna crescente, 25% of the Moon is Illuminated
Oggi
Luna crescente
Set 2
Primo quarto
Set 8
Luna piena
Set 15
Ultimo quarto
Set 24
Nuovo

Gli estremi di oggi

State Highs State Lows

Community

WunderPhotos

Upload Photos

1,748,657 foto caricate!

WunderBlogs® & News

Nearby

Profondità neve

Stazione Profondità Altitudine
Santa Fe 0 in 11445 ft
Quemazon 1 in 9500 ft
Red River Pass #2 0 in 9850 ft
Sierra Blanca 0 in 10280 ft
North Costilla 0 in 10600 ft

Attività sismica

Città  Distanza Mag. Data & Ora
Non sono state riportate attività sismiche nelle vicinanze.
Minimo Magnitudo Mostrato è 2.5.

Temperature delle acque costiere

Località Temperatura
Nessun dato dalle stazioni

Stazioni meteo nelle vicinanze